Time;durP1;ratioP1;P1;durP2;ratioP2;P2;SDS_P1;SDS_P2;PMS_P1;PMS_P2;Temp;Humidity;BMP_temperature;BMP_pressure;BME280_temperature;BME280_humidity;BME280_pressure;Samples;Min_cycle;Max_cycle;Signal;HPM_P1;HPM_P2
2021/05/17 00:00:21;;;;;;;7.97;2.17;;;;;;;7.92;100.00;98214.25;4897127;29;20051;-79
2021/05/17 00:03:27;;;;;;;6.95;1.73;;;;;;;7.92;100.00;98217.00;4899816;29;20673;-80
2021/05/17 00:06:32;;;;;;;4.32;1.08;;;;;;;7.93;100.00;98212.97;4898302;29;20631;-81
2021/05/17 00:09:35;;;;;;;5.45;1.98;;;;;;;7.93;100.00;98218.50;4896156;29;20063;-81
2021/05/17 00:12:39;;;;;;;4.50;1.90;;;;;;;7.97;100.00;98219.06;4896389;29;20801;-80
2021/05/17 00:15:43;;;;;;;3.45;1.73;;;;;;;7.96;100.00;98218.28;4896909;29;20674;-79
2021/05/17 00:18:47;;;;;;;9.02;2.05;;;;;;;7.99;100.00;98222.09;4895600;29;20071;-79
2021/05/17 00:21:51;;;;;;;13.20;2.03;;;;;;;7.98;100.00;98220.56;4896340;29;20126;-77
2021/05/17 00:24:55;;;;;;;3.03;1.45;;;;;;;7.98;100.00;98232.41;4895177;29;20063;-79
2021/05/17 00:27:59;;;;;;;2.50;1.42;;;;;;;7.97;100.00;98235.69;4893686;29;20059;-76
2021/05/17 00:31:03;;;;;;;5.68;1.20;;;;;;;7.96;100.00;98234.16;4894681;29;20775;-76
2021/05/17 00:34:08;;;;;;;3.67;1.80;;;;;;;7.97;100.00;98235.69;4872564;29;20051;-76
2021/05/17 00:37:13;;;;;;;3.67;1.60;;;;;;;7.97;100.00;98236.44;4897475;29;20861;-78
2021/05/17 00:40:18;;;;;;;8.82;0.88;;;;;;;8.00;100.00;98245.78;4896447;29;20055;-77
2021/05/17 00:43:28;;;;;;;1.88;1.17;;;;;;;8.00;100.00;98246.53;4896007;29;20059;-77
2021/05/17 00:46:33;;;;;;;2.92;1.73;;;;;;;8.00;100.00;98245.78;4896620;29;20055;-77
2021/05/17 00:49:37;;;;;;;2.28;1.30;;;;;;;8.00;100.00;98240.22;4897536;29;20090;-78
2021/05/17 00:52:41;;;;;;;7.28;1.30;;;;;;;8.05;100.00;98247.81;4900257;29;20063;-79
2021/05/17 00:55:45;;;;;;;4.88;1.80;;;;;;;8.08;100.00;98255.13;4899626;29;20066;-76
2021/05/17 00:58:49;;;;;;;3.30;1.33;;;;;;;8.10;100.00;98256.16;4897098;29;20055;-77
2021/05/17 01:01:53;;;;;;;3.83;1.75;;;;;;;8.10;100.00;98249.88;4898314;29;20071;-77
2021/05/17 01:04:57;;;;;;;6.43;2.20;;;;;;;8.09;100.00;98265.72;4896660;29;20643;-77
2021/05/17 01:08:03;;;;;;;25.25;2.08;;;;;;;8.08;100.00;98252.34;4896351;29;20763;-77
2021/05/17 01:11:08;;;;;;;1.27;1.10;;;;;;;8.04;100.00;98262.91;4896809;29;20619;-77
2021/05/17 01:14:13;;;;;;;4.03;1.35;;;;;;;7.98;100.00;98262.91;4895600;29;20143;-77
2021/05/17 01:17:17;;;;;;;5.93;1.10;;;;;;;7.92;100.00;98262.13;4894986;29;20071;-76
2021/05/17 01:20:22;;;;;;;2.97;1.52;;;;;;;7.85;100.00;98256.28;4893748;29;20070;-77
2021/05/17 01:23:44;;;;;;;14.85;1.85;;;;;;;7.79;100.00;98263.81;4895237;29;20059;-78
2021/05/17 01:26:48;;;;;;;5.88;3.78;;;;;;;7.68;100.00;98267.28;4884786;29;20063;-76
2021/05/17 01:29:52;;;;;;;5.80;2.35;;;;;;;7.60;100.00;98269.72;4897888;29;20063;-77
2021/05/17 01:32:55;;;;;;;2.10;1.67;;;;;;;7.56;100.00;98269.19;4897031;29;20062;-76
2021/05/17 01:36:00;;;;;;;3.80;2.25;;;;;;;7.51;100.00;98274.72;4896429;29;20096;-77
2021/05/17 01:39:04;;;;;;;3.88;1.58;;;;;;;7.46;100.00;98286.50;4897097;29;20063;-78
2021/05/17 01:42:09;;;;;;;3.63;1.73;;;;;;;7.34;100.00;98274.56;4896454;29;20054;-77
2021/05/17 01:45:14;;;;;;;6.32;1.95;;;;;;;7.25;100.00;98283.09;4894986;29;20060;-76
2021/05/17 01:48:25;;;;;;;4.60;2.08;;;;;;;7.16;100.00;98291.56;4895156;29;20054;-77
2021/05/17 01:51:29;;;;;;;10.68;3.05;;;;;;;7.04;100.00;98295.47;4895483;29;20066;-77
2021/05/17 01:54:40;;;;;;;1.73;1.30;;;;;;;6.95;100.00;98297.66;4895802;29;20089;-77
2021/05/17 01:57:44;;;;;;;3.67;2.20;;;;;;;6.83;100.00;98299.53;4896299;29;20063;-77
2021/05/17 02:00:48;;;;;;;4.28;2.35;;;;;;;6.78;100.00;98305.78;4886086;29;20789;-77
2021/05/17 02:03:52;;;;;;;8.40;3.63;;;;;;;6.71;100.00;98311.75;4897450;29;20716;-77
2021/05/17 02:06:56;;;;;;;10.57;1.85;;;;;;;6.68;100.00;98318.25;4884070;29;20059;-78
2021/05/17 02:10:03;;;;;;;3.22;2.00;;;;;;;6.65;100.00;98316.44;4894823;29;20059;-76
2021/05/17 02:13:13;;;;;;;3.10;1.45;;;;;;;6.69;100.00;98330.84;4895454;29;20059;-75
2021/05/17 02:16:17;;;;;;;4.45;2.47;;;;;;;6.74;100.00;98330.13;4894753;29;20070;-75
2021/05/17 02:19:24;;;;;;;6.85;2.33;;;;;;;6.80;100.00;98330.94;4892599;29;20063;-76
2021/05/17 02:22:28;;;;;;;7.15;2.17;;;;;;;6.84;100.00;98340.53;4893466;29;20071;-76
2021/05/17 02:25:32;;;;;;;5.25;2.55;;;;;;;6.91;100.00;98344.88;4892509;29;20099;-76
2021/05/17 02:28:38;;;;;;;3.90;2.33;;;;;;;6.96;100.00;98349.72;4894559;29;20051;-75
2021/05/17 02:31:41;;;;;;;5.10;2.05;;;;;;;6.99;100.00;98348.78;4893339;29;20066;-76
2021/05/17 02:34:45;;;;;;;3.38;2.10;;;;;;;7.05;100.00;98355.13;4894436;29;20070;-76
2021/05/17 02:37:49;;;;;;;4.43;1.73;;;;;;;7.09;100.00;98358.44;4893582;29;20080;-76
2021/05/17 02:40:55;;;;;;;8.63;3.03;;;;;;;7.12;100.00;98365.00;4894497;29;20070;-75
2021/05/17 02:43:59;;;;;;;6.32;2.42;;;;;;;7.15;100.00;98370.31;4893992;29;20067;-75
2021/05/17 02:47:03;;;;;;;3.97;1.75;;;;;;;7.20;100.00;98379.91;4894499;29;20055;-75
2021/05/17 02:50:11;;;;;;;3.60;2.00;;;;;;;7.23;100.00;98385.25;4893568;29;20058;-75
2021/05/17 02:53:27;;;;;;;8.35;2.25;;;;;;;7.29;100.00;98394.38;4893227;29;20058;-75
2021/05/17 02:56:36;;;;;;;6.32;2.88;;;;;;;7.35;100.00;98386.88;4893771;29;20059;-74
2021/05/17 03:00:02;;;;;;;9.00;1.83;;;;;;;7.39;100.00;98401.25;4893340;29;20434;-75
2021/05/17 03:03:11;;;;;;;3.20;1.70;;;;;;;7.44;100.00;98395.00;4892471;29;20059;-76
2021/05/17 03:06:16;;;;;;;8.73;3.13;;;;;;;7.50;100.00;98398.59;4892480;29;20055;-75
2021/05/17 03:09:21;;;;;;;10.70;2.22;;;;;;;7.55;100.00;98411.75;4893044;29;20063;-76
2021/05/17 03:12:28;;;;;;;6.93;1.92;;;;;;;7.60;100.00;98413.78;4892948;29;20059;-76
2021/05/17 03:15:31;;;;;;;8.38;2.25;;;;;;;7.65;100.00;98415.09;4892711;29;20066;-76
2021/05/17 03:18:36;;;;;;;9.82;2.80;;;;;;;7.69;100.00;98421.16;4893820;29;20635;-75
2021/05/17 03:21:41;;;;;;;11.10;3.80;;;;;;;7.72;100.00;98419.41;4892418;29;20067;-75
2021/05/17 03:24:47;;;;;;;6.80;2.90;;;;;;;7.76;100.00;98419.97;4891811;29;20054;-75
2021/05/17 03:27:51;;;;;;;10.75;3.30;;;;;;;7.78;100.00;98418.22;4894736;29;20062;-75
2021/05/17 03:30:54;;;;;;;13.60;4.70;;;;;;;7.82;100.00;98420.78;4898444;29;20066;-76
2021/05/17 03:33:59;;;;;;;18.38;3.90;;;;;;;7.86;100.00;98426.88;4897812;29;20150;-76
2021/05/17 03:37:02;;;;;;;12.35;3.58;;;;;;;7.89;100.00;98429.41;4896750;29;20059;-75
2021/05/17 03:40:07;;;;;;;13.82;3.78;;;;;;;7.92;100.00;98427.66;4897636;29;20086;-75
2021/05/17 03:43:10;;;;;;;8.98;4.30;;;;;;;7.94;100.00;98425.16;4897167;29;20068;-76
2021/05/17 03:46:14;;;;;;;16.30;5.30;;;;;;;7.97;100.00;98432.50;4896976;29;20062;-76
2021/05/17 03:49:17;;;;;;;8.38;4.15;;;;;;;8.00;100.00;98437.03;4895484;29;20062;-76
2021/05/17 03:52:21;;;;;;;18.27;4.13;;;;;;;8.02;100.00;98437.31;4897428;29;20050;-75
2021/05/17 03:55:25;;;;;;;9.55;2.63;;;;;;;8.03;100.00;98441.59;4897431;29;20778;-75
2021/05/17 03:58:29;;;;;;;13.73;3.08;;;;;;;8.05;100.00;98444.66;4895435;29;21088;-76
2021/05/17 04:01:32;;;;;;;10.73;3.63;;;;;;;8.05;100.00;98444.66;4895272;29;20055;-76
2021/05/17 04:04:43;;;;;;;16.58;4.13;;;;;;;8.07;100.00;98451.22;4895833;29;20051;-76
2021/05/17 04:14:13;;;;;;;6.68;1.42;;;;;;;8.12;100.00;98442.16;4896124;29;20047;-76
2021/05/17 04:17:16;;;;;;;8.77;2.95;;;;;;;8.17;100.00;98443.47;4896253;29;20050;-76
2021/05/17 04:20:20;;;;;;;10.85;1.75;;;;;;;8.17;100.00;98449.78;4895857;29;20055;-76
2021/05/17 04:23:26;;;;;;;7.70;2.45;;;;;;;8.20;100.00;98442.50;4896025;29;20078;-76
2021/05/17 04:26:30;;;;;;;16.38;3.85;;;;;;;8.23;100.00;98452.56;4895910;29;20329;-75
2021/05/17 04:29:33;;;;;;;17.75;4.50;;;;;;;8.26;100.00;98451.63;4895169;29;20194;-74
2021/05/17 04:32:37;;;;;;;7.75;2.55;;;;;;;8.29;100.00;98461.75;4896235;29;20722;-76
2021/05/17 04:35:41;;;;;;;11.68;3.70;;;;;;;8.31;100.00;98471.09;4895351;29;20804;-76
2021/05/17 04:38:45;;;;;;;14.55;3.60;;;;;;;8.32;100.00;98467.06;4894481;29;20055;-75
2021/05/17 04:41:48;;;;;;;7.57;3.03;;;;;;;8.32;100.00;98485.69;4896364;29;20047;-75
2021/05/17 04:44:52;;;;;;;11.35;3.67;;;;;;;8.33;100.00;98481.69;4896750;29;20063;-75
2021/05/17 04:47:56;;;;;;;7.03;3.35;;;;;;;8.36;100.00;98484.22;4895686;29;20788;-75
2021/05/17 04:51:00;;;;;;;10.75;2.72;;;;;;;8.40;100.00;98490.31;4894583;29;20079;-75
2021/05/17 04:54:04;;;;;;;13.10;3.97;;;;;;;8.45;100.00;98485.28;4894978;29;20849;-74
2021/05/17 04:57:08;;;;;;;9.50;3.63;;;;;;;8.46;100.00;98498.69;4895638;29;20047;-75
2021/05/17 05:00:13;;;;;;;9.48;3.58;;;;;;;8.45;100.00;98497.16;4896219;29;20141;-75
2021/05/17 05:03:16;;;;;;;5.85;2.20;;;;;;;8.51;100.00;98506.25;4896459;29;20218;-75
2021/05/17 05:06:20;;;;;;;11.73;3.83;;;;;;;8.56;100.00;98508.31;4894062;29;20055;-74
2021/05/17 05:09:25;;;;;;;10.10;4.00;;;;;;;8.60;100.00;98506.06;4895553;29;20051;-73
2021/05/17 05:12:28;;;;;;;17.25;5.05;;;;;;;8.60;100.00;98519.94;4892575;29;20066;-75
2021/05/17 05:15:32;;;;;;;12.85;5.15;;;;;;;8.60;100.00;98514.41;4896419;29;20559;-78
2021/05/17 05:18:35;;;;;;;10.52;3.17;;;;;;;8.65;100.00;98527.56;4894947;29;20063;-78
2021/05/17 05:21:39;;;;;;;11.35;4.28;;;;;;;8.69;100.00;98519.75;4893803;29;20055;-79
2021/05/17 05:24:43;;;;;;;16.20;2.88;;;;;;;8.75;100.00;98528.88;4895957;29;20142;-77
2021/05/17 05:27:49;;;;;;;9.80;3.22;;;;;;;8.80;100.00;98528.16;4896143;29;20054;-78
2021/05/17 05:33:57;;;;;;;8.10;3.40;;;;;;;8.82;100.00;98536.75;4895109;29;20847;-78
2021/05/17 05:37:01;;;;;;;10.77;4.15;;;;;;;8.81;100.00;98535.25;4904412;29;20062;-78
2021/05/17 05:40:06;;;;;;;10.93;4.22;;;;;;;8.83;100.00;98543.06;4897374;29;20090;-78
2021/05/17 05:43:09;;;;;;;10.55;3.17;;;;;;;8.83;100.00;98538.28;4898276;29;20736;-76
2021/05/17 05:46:13;;;;;;;17.73;3.63;;;;;;;8.86;100.00;98542.06;4902283;29;20422;-77
2021/05/17 05:49:16;;;;;;;3.30;2.58;;;;;;;8.85;100.00;98543.34;4886503;29;20067;-77
2021/05/17 05:52:20;;;;;;;9.75;3.45;;;;;;;8.86;100.00;98553.16;4885397;29;20059;-76
2021/05/17 05:55:24;;;;;;;7.50;2.75;;;;;;;8.92;100.00;98556.75;4895552;29;20067;-77
2021/05/17 05:58:28;;;;;;;9.00;3.58;;;;;;;8.96;100.00;98563.59;4893868;29;20803;-77
2021/05/17 06:01:31;;;;;;;11.80;3.42;;;;;;;8.96;100.00;98563.59;4895823;29;20051;-77
2021/05/17 06:04:35;;;;;;;17.77;3.67;;;;;;;8.98;100.00;98566.63;4894883;29;21214;-76
2021/05/17 06:07:38;;;;;;;9.45;2.75;;;;;;;9.00;100.00;98574.47;4895656;29;20059;-79
2021/05/17 06:10:42;;;;;;;9.70;3.58;;;;;;;9.00;100.00;98580.78;4882438;29;20382;-79
2021/05/17 06:13:48;;;;;;;4.95;2.95;;;;;;;9.06;100.00;98570.47;4893416;29;20703;-78
2021/05/17 06:16:52;;;;;;;13.88;3.30;;;;;;;9.07;100.00;98580.31;4878191;29;20047;-78
2021/05/17 06:19:57;;;;;;;13.98;3.20;;;;;;;9.01;100.00;98585.06;4899272;28;20059;-79
2021/05/17 06:23:01;;;;;;;7.82;2.45;;;;;;;9.06;100.00;98589.13;4886600;28;20166;-77
2021/05/17 06:26:05;;;;;;;13.10;4.25;;;;;;;9.12;100.00;98587.91;4875203;29;20438;-78
2021/05/17 06:29:09;;;;;;;19.80;4.32;;;;;;;9.20;100.00;98591.00;4885073;29;20059;-79
2021/05/17 06:32:15;;;;;;;13.88;3.47;;;;;;;9.21;100.00;98591.75;4893407;29;20054;-77
2021/05/17 06:35:25;;;;;;;10.35;4.72;;;;;;;9.24;100.00;98585.97;4887088;29;20059;-78
2021/05/17 06:38:30;;;;;;;15.88;3.25;;;;;;;9.31;100.00;98602.19;4892697;29;20058;-77
2021/05/17 06:41:35;;;;;;;8.10;2.63;;;;;;;9.30;100.00;98599.88;4889385;29;21111;-78
2021/05/17 06:44:39;;;;;;;13.15;3.45;;;;;;;9.29;100.00;98606.69;4890922;29;20177;-77
2021/05/17 06:47:43;;;;;;;8.43;3.90;;;;;;;9.33;100.00;98608.00;4893481;29;20067;-78
2021/05/17 06:50:47;;;;;;;16.33;4.40;;;;;;;9.40;100.00;98618.63;4888521;29;20062;-78
2021/05/17 06:53:56;;;;;;;12.80;3.22;;;;;;;9.47;100.00;98618.16;4877023;29;20055;-78
2021/05/17 06:57:17;;;;;;;11.07;3.22;;;;;;;9.60;100.00;98614.91;4884366;29;20736;-77
2021/05/17 07:00:30;;;;;;;11.10;2.83;;;;;;;9.72;100.00;98619.28;4886816;29;20059;-77
2021/05/17 07:03:34;;;;;;;15.88;3.95;;;;;;;9.82;100.00;98626.13;4891546;29;20054;-77
2021/05/17 07:06:40;;;;;;;8.57;3.05;;;;;;;9.89;100.00;98631.22;4892248;29;20066;-78
2021/05/17 07:13:06;;;;;;;12.93;3.15;;;;;;;10.06;100.00;98632.03;4888912;29;20102;-77
2021/05/17 07:16:10;;;;;;;7.20;2.85;;;;;;;10.08;100.00;98632.28;4893083;29;20047;-76
2021/05/17 07:19:14;;;;;;;15.43;4.78;;;;;;;10.08;100.00;98639.88;4893224;29;20058;-75
2021/05/17 07:25:40;;;;;;;5.93;3.08;;;;;;;10.36;100.00;98643.50;4894211;29;20059;-76
2021/05/17 07:28:47;;;;;;;11.23;3.55;;;;;;;10.50;100.00;98643.25;4892097;29;20086;-76
2021/05/17 07:31:51;;;;;;;8.77;2.90;;;;;;;10.59;100.00;98650.59;4891602;29;20071;-77
2021/05/17 07:34:56;;;;;;;11.02;3.63;;;;;;;10.64;100.00;98655.44;4890850;29;20059;-75
2021/05/17 07:37:59;;;;;;;7.50;3.13;;;;;;;10.51;100.00;98657.94;4890254;29;20560;-75
2021/05/17 07:41:03;;;;;;;5.97;2.58;;;;;;;10.36;100.00;98663.75;4890979;29;20293;-75
2021/05/17 07:44:08;;;;;;;9.93;3.65;;;;;;;10.40;100.00;98657.94;4891113;29;20082;-76
2021/05/17 07:47:11;;;;;;;16.17;3.63;;;;;;;10.48;100.00;98665.28;4892276;29;20067;-75
2021/05/17 07:50:16;;;;;;;8.85;3.15;;;;;;;10.54;100.00;98668.84;4872955;29;20789;-76
2021/05/17 07:53:19;;;;;;;3.65;2.30;;;;;;;10.47;100.00;98674.91;4872125;29;20052;-75
2021/05/17 07:56:23;;;;;;;8.07;3.55;;;;;;;10.47;100.00;98665.78;4872912;29;20072;-75
2021/05/17 07:59:30;;;;;;;9.40;2.17;;;;;;;10.57;100.00;98672.63;4871129;29;20918;-77
2021/05/17 08:02:34;;;;;;;5.30;2.35;;;;;;;10.68;100.00;98673.41;4874498;29;20059;-76
2021/05/17 08:05:37;;;;;;;6.78;3.03;;;;;;;10.90;100.00;98671.88;4871706;29;20784;-77
2021/05/17 08:08:41;;;;;;;6.35;3.13;;;;;;;11.36;100.00;98674.91;4872509;29;20087;-77
2021/05/17 08:11:46;;;;;;;6.00;2.65;;;;;;;11.36;100.00;98683.25;4884400;29;20083;-75
2021/05/17 08:14:49;;;;;;;7.50;3.50;;;;;;;10.99;100.00;98694.69;4913288;29;20067;-77
2021/05/17 08:17:53;;;;;;;4.15;1.98;;;;;;;10.61;100.00;98685.03;4896797;29;20072;-75
2021/05/17 08:20:57;;;;;;;5.70;2.35;;;;;;;10.22;100.00;98686.97;4918621;29;20078;-77
2021/05/17 08:24:00;;;;;;;5.63;1.90;;;;;;;10.00;100.00;98691.69;4917398;29;20072;-77
2021/05/17 08:27:05;;;;;;;5.78;1.48;;;;;;;9.89;100.00;98703.53;4916573;29;20067;-77
2021/05/17 08:30:10;;;;;;;9.10;2.50;;;;;;;9.91;100.00;98712.88;4916440;29;20059;-77
2021/05/17 08:33:14;;;;;;;11.00;3.03;;;;;;;10.03;100.00;98713.69;4917001;29;20076;-77
2021/05/17 08:36:18;;;;;;;11.25;3.05;;;;;;;10.28;100.00;98718.38;4915430;29;20059;-77
2021/05/17 08:39:21;;;;;;;17.10;3.88;;;;;;;10.34;100.00;98716.38;4914746;29;20063;-78
2021/05/17 08:42:27;;;;;;;8.25;1.88;;;;;;;10.55;100.00;98717.69;4914535;29;20059;-78
2021/05/17 08:45:32;;;;;;;7.43;2.65;;;;;;;11.17;100.00;98712.94;4916074;29;20063;-77
2021/05/17 08:48:46;;;;;;;5.35;2.38;;;;;;;11.59;100.00;98704.25;4915679;29;20067;-78
2021/05/17 08:51:50;;;;;;;6.45;2.55;;;;;;;12.28;100.00;98707.84;4916064;29;20063;-77
2021/05/17 08:54:54;;;;;;;6.28;2.92;;;;;;;12.55;100.00;98692.97;4916278;29;20067;-77
2021/05/17 08:57:57;;;;;;;8.27;3.35;;;;;;;12.91;100.00;98702.13;4904494;29;20063;-78
2021/05/17 09:01:04;;;;;;;4.72;1.98;;;;;;;12.91;100.00;98702.13;4916255;29;20083;-77
2021/05/17 09:04:13;;;;;;;12.82;3.70;;;;;;;12.97;100.00;98702.84;4916122;29;20067;-77
2021/05/17 09:07:32;;;;;;;13.50;3.15;;;;;;;13.01;100.00;98703.34;4915392;29;20059;-77
2021/05/17 09:10:38;;;;;;;17.05;3.92;;;;;;;13.06;100.00;98696.22;4915227;29;20083;-77
2021/05/17 09:13:42;;;;;;;6.55;2.95;;;;;;;13.06;100.00;98696.94;4916050;29;20522;-76
2021/05/17 09:16:49;;;;;;;9.18;2.47;;;;;;;12.74;100.00;98709.88;4916263;29;20422;-76
2021/05/17 09:19:52;;;;;;;3.25;1.67;;;;;;;11.78;100.00;98727.56;4917932;29;20067;-76
2021/05/17 09:23:08;;;;;;;0.60;0.60;;;;;;;10.62;100.00;98731.13;4905154;29;20399;-77
2021/05/17 09:26:16;;;;;;;3.20;0.93;;;;;;;9.89;100.00;98742.44;4914670;29;20533;-77
2021/05/17 09:29:23;;;;;;;9.85;1.45;;;;;;;9.49;100.00;98754.59;4914811;29;20067;-77
2021/05/17 09:32:29;;;;;;;0.77;0.38;;;;;;;9.36;100.00;98756.25;4916131;29;20066;-76
2021/05/17 09:35:33;;;;;;;5.28;0.63;;;;;;;9.38;100.00;98753.72;4915573;29;20505;-76
2021/05/17 09:38:37;;;;;;;0.47;0.47;;;;;;;9.50;100.00;98758.91;4915554;29;20083;-76
2021/05/17 09:41:55;;;;;;;2.92;0.50;;;;;;;9.77;100.00;98763.88;4915403;29;20063;-77
2021/05/17 09:44:58;;;;;;;0.65;0.60;;;;;;;10.05;100.00;98764.00;4915429;29;20075;-76
2021/05/17 09:48:13;;;;;;;9.40;0.80;;;;;;;10.24;100.00;98767.94;4916126;29;20113;-76
2021/05/17 09:51:18;;;;;;;0.57;0.57;;;;;;;10.35;100.00;98762.41;4914366;29;20422;-77
2021/05/17 09:54:23;;;;;;;0.75;0.65;;;;;;;10.30;100.00;98762.38;4914084;29;20063;-77
2021/05/17 09:57:38;;;;;;;2.50;0.85;;;;;;;10.25;100.00;98771.47;4914000;29;20059;-77
2021/05/17 10:00:41;;;;;;;4.30;0.77;;;;;;;10.33;100.00;98783.66;4914590;29;20454;-78
2021/05/17 10:03:46;;;;;;;3.38;0.75;;;;;;;10.27;100.00;98777.28;4913865;29;20529;-76
2021/05/17 10:06:54;;;;;;;1.10;0.82;;;;;;;10.10;100.00;98799.44;4914581;29;20434;-77
2021/05/17 10:09:58;;;;;;;14.85;1.50;;;;;;;9.91;100.00;98812.22;4913874;29;20059;-76
2021/05/17 10:13:03;;;;;;;1.10;0.82;;;;;;;9.67;100.00;98836.84;4917259;29;20067;-78
2021/05/17 10:16:09;;;;;;;1.67;0.70;;;;;;;9.40;100.00;98842.94;4913714;29;20557;-78
2021/05/17 10:19:13;;;;;;;3.10;0.30;;;;;;;9.18;100.00;98847.00;4914503;29;20545;-79
2021/05/17 10:22:17;;;;;;;0.55;0.55;;;;;;;8.98;100.00;98847.09;4914453;29;20083;-78
2021/05/17 10:25:23;;;;;;;2.30;0.70;;;;;;;8.91;100.00;98850.28;4913623;29;20079;-79
2021/05/17 10:28:31;;;;;;;1.38;1.10;;;;;;;8.92;100.00;98856.59;4889508;29;20075;-79
2021/05/17 10:31:35;;;;;;;2.75;0.57;;;;;;;8.87;100.00;98857.31;4913893;29;20426;-77
2021/05/17 10:34:51;;;;;;;0.47;0.47;;;;;;;8.84;100.00;98867.38;4913494;29;20063;-78
2021/05/17 10:41:49;;;;;;;0.47;0.47;;;;;;;8.69;100.00;98863.91;4913377;29;20071;-77
2021/05/17 10:48:35;;;;;;;0.50;0.38;;;;;;;8.61;100.00;98865.59;4914176;29;20059;-78
2021/05/17 10:51:38;;;;;;;2.35;0.50;;;;;;;8.69;100.00;98865.91;4913966;29;20071;-77
2021/05/17 10:54:47;;;;;;;1.25;1.02;;;;;;;8.77;100.00;98859.44;4914518;29;20088;-76
2021/05/17 11:01:25;;;;;;;3.05;1.23;;;;;;;9.18;100.00;98873.28;4913624;29;20063;-78
2021/05/17 11:04:37;;;;;;;1.10;0.93;;;;;;;9.39;100.00;98878.28;4911589;29;20738;-78
2021/05/17 11:08:04;;;;;;;0.57;0.35;;;;;;;9.50;100.00;98883.19;4912952;29;20430;-80
2021/05/17 11:11:14;;;;;;;1.27;0.68;;;;;;;9.43;100.00;98881.59;4923546;29;20062;-79
2021/05/17 11:14:21;;;;;;;3.08;0.70;;;;;;;9.29;100.00;98887.28;4932309;29;20410;-79
2021/05/17 11:17:25;;;;;;;2.38;0.90;;;;;;;9.25;100.00;98895.06;4933386;29;20058;-78
2021/05/17 11:23:47;;;;;;;1.20;1.00;;;;;;;9.21;100.00;98903.63;4932531;29;20063;-77
2021/05/17 11:26:55;;;;;;;3.50;0.73;;;;;;;9.22;100.00;98907.16;4932492;29;20059;-77
2021/05/17 11:29:58;;;;;;;2.55;0.60;;;;;;;9.31;100.00;98907.00;4932581;29;20054;-77
2021/05/17 11:33:20;;;;;;;0.65;0.65;;;;;;;9.35;100.00;98910.31;4933301;29;20066;-76
2021/05/17 11:36:33;;;;;;;0.80;0.50;;;;;;;9.27;100.00;98907.22;4931877;29;20058;-77
2021/05/17 11:39:39;;;;;;;0.95;0.60;;;;;;;9.20;100.00;98915.22;4933661;29;20074;-77
2021/05/17 11:42:43;;;;;;;1.33;0.40;;;;;;;9.09;100.00;98908.31;4930968;29;20059;-77
2021/05/17 11:45:46;;;;;;;0.73;0.25;;;;;;;9.00;100.00;98914.00;4933064;29;20062;-79
2021/05/17 11:48:51;;;;;;;3.03;0.85;;;;;;;8.98;100.00;98910.19;4933327;29;20062;-78
2021/05/17 11:52:08;;;;;;;1.38;0.20;;;;;;;8.96;100.00;98910.69;4936074;29;20062;-81
2021/05/17 11:55:12;;;;;;;2.20;0.40;;;;;;;8.98;100.00;98905.41;4936189;29;20083;-81
2021/05/17 11:58:24;;;;;;;0.77;0.43;;;;;;;9.00;100.00;98919.56;4935727;29;20418;-79
2021/05/17 12:01:30;;;;;;;;;;;;;;;9.07;100.00;98918.38;4936220;29;20074;-78
2021/05/17 12:04:35;;;;;;;0.75;0.50;;;;;;;9.21;100.00;98933.41;4935334;29;19931;-79
2021/05/17 12:07:49;;;;;;;0.30;0.30;;;;;;;9.39;100.00;98928.31;4935845;29;20079;-78
2021/05/17 12:10:53;;;;;;;2.17;0.77;;;;;;;9.54;100.00;98936.53;4935169;29;20062;-77
2021/05/17 12:14:07;;;;;;;0.40;0.40;;;;;;;9.57;100.00;98939.09;4935575;29;20066;-77
2021/05/17 12:17:14;;;;;;;3.13;1.05;;;;;;;9.74;100.00;98947.59;4924165;29;20058;-79
2021/05/17 12:20:19;;;;;;;5.18;0.30;;;;;;;10.13;100.00;98942.38;4934577;29;20066;-79
2021/05/17 12:23:22;;;;;;;2.38;0.43;;;;;;;10.50;100.00;98935.53;4924055;29;20058;-78
2021/05/17 12:26:46;;;;;;;0.52;0.38;;;;;;;10.86;100.00;98933.97;4937010;29;20418;-78
2021/05/17 12:29:53;;;;;;;1.30;0.30;;;;;;;10.88;100.00;98944.59;4934223;29;20079;-77
2021/05/17 12:33:01;;;;;;;0.65;0.40;;;;;;;10.61;100.00;98935.59;4936142;29;20067;-78
2021/05/17 12:36:04;;;;;;;1.10;0.35;;;;;;;10.64;100.00;98951.31;4935296;29;20066;-76
2021/05/17 12:39:16;;;;;;;0.60;0.32;;;;;;;10.81;100.00;98945.84;4923348;29;20058;-78
2021/05/17 12:42:20;;;;;;;0.57;0.55;;;;;;;11.04;100.00;98938.34;4934555;29;20162;-77
2021/05/17 12:45:23;;;;;;;1.00;0.45;;;;;;;11.28;100.00;98936.63;4935902;29;20063;-77
2021/05/17 12:48:43;;;;;;;1.30;0.28;;;;;;;11.32;100.00;98933.63;4934873;29;20067;-76
2021/05/17 12:51:53;;;;;;;2.28;0.60;;;;;;;11.31;100.00;98923.72;4934961;29;20419;-79
2021/05/17 12:55:20;;;;;;;0.50;0.40;;;;;;;11.44;100.00;98930.34;4934385;29;20058;-81
2021/05/17 12:58:37;;;;;;;0.80;0.40;;;;;;;11.86;100.00;98934.25;4933214;29;20062;-79
2021/05/17 13:01:41;;;;;;;3.25;0.63;;;;;;;12.27;100.00;98928.88;4934564;29;20066;-79
2021/05/17 13:04:55;;;;;;;1.50;0.43;;;;;;;12.37;100.00;98932.94;4917404;29;20063;-78
2021/05/17 13:07:59;;;;;;;1.63;0.80;;;;;;;12.43;100.00;98920.47;4915578;29;20063;-78
2021/05/17 13:11:06;;;;;;;1.25;0.90;;;;;;;12.48;100.00;98914.13;4915770;29;20063;-81
2021/05/17 13:14:10;;;;;;;7.07;1.25;;;;;;;12.70;100.00;98921.69;4915639;29;20063;-80
2021/05/17 13:17:15;;;;;;;3.42;1.08;;;;;;;12.85;100.00;98919.34;4914999;29;20071;-80
2021/05/17 13:20:26;;;;;;;0.85;0.28;;;;;;;12.67;100.00;98914.31;4915084;29;20414;-78
2021/05/17 13:30:12;;;;;;;4.70;1.00;;;;;;;13.12;100.00;98912.16;4915340;29;20071;-78
2021/05/17 13:33:37;;;;;;;0.68;0.65;;;;;;;13.29;100.00;98902.41;4916086;29;20086;-78
2021/05/17 13:36:40;;;;;;;0.47;0.20;;;;;;;13.46;100.00;98921.88;4914163;29;20067;-77
2021/05/17 13:39:44;;;;;;;0.50;0.35;;;;;;;13.18;100.00;98918.47;4915233;29;20108;-78
2021/05/17 13:42:48;;;;;;;2.72;1.45;;;;;;;13.22;100.00;98916.16;4932531;29;20067;-79
2021/05/17 13:45:52;;;;;;;6.95;0.30;;;;;;;13.37;100.00;98925.75;4936294;29;20062;-80
2021/05/17 13:48:56;;;;;;;0.50;0.30;;;;;;;13.69;100.00;98928.84;4914751;29;20454;-81
2021/05/17 13:52:00;;;;;;;1.38;0.55;;;;;;;14.04;100.00;98928.06;4920962;29;20058;-82
2021/05/17 13:55:06;;;;;;;0.25;0.25;;;;;;;14.07;100.00;98927.03;4922358;29;20643;-82
2021/05/17 13:58:09;;;;;;;1.00;0.43;;;;;;;13.91;100.00;98944.72;4921387;29;20410;-79
2021/05/17 14:01:13;;;;;;;3.05;0.30;;;;;;;14.00;100.00;98938.78;4937069;29;20113;-84
2021/05/17 14:04:16;;;;;;;0.60;0.25;;;;;;;13.85;100.00;98941.97;4923738;29;20063;-81
2021/05/17 14:07:21;;;;;;;1.17;0.65;;;;;;;13.80;100.00;98947.59;4933103;29;20055;-81
2021/05/17 14:10:25;;;;;;;0.40;0.40;;;;;;;14.15;100.00;98948.34;4936587;29;20063;-82
2021/05/17 14:13:30;;;;;;;0.40;0.20;;;;;;;13.94;100.00;98952.09;4933643;29;20540;-81
2021/05/17 14:16:33;;;;;;;0.50;0.15;;;;;;;13.75;100.00;98951.97;4934555;29;20051;-82
2021/05/17 14:19:37;;;;;;;1.85;0.68;;;;;;;13.87;100.00;98941.44;4933249;29;20055;-82
2021/05/17 14:22:42;;;;;;;0.60;0.43;;;;;;;14.00;100.00;98956.34;4933932;29;20063;-80
2021/05/17 14:25:46;;;;;;;1.60;0.65;;;;;;;13.99;100.00;98960.44;4933666;29;20066;-80
2021/05/17 14:28:49;;;;;;;1.95;0.60;;;;;;;13.67;100.00;98957.34;4922723;29;20066;-81
2021/05/17 14:31:54;;;;;;;0.10;0.10;;;;;;;13.31;100.00;98963.41;4934432;29;20067;-81
2021/05/17 14:34:58;;;;;;;2.92;0.30;;;;;;;13.15;100.00;98951.03;4931763;29;20062;-81
2021/05/17 14:38:02;;;;;;;1.25;0.88;;;;;;;13.17;100.00;98958.88;4921970;29;20059;-85
2021/05/17 14:41:06;;;;;;;1.42;0.65;;;;;;;13.36;100.00;98959.84;4921396;29;20529;-81
2021/05/17 14:44:09;;;;;;;1.17;0.43;;;;;;;13.49;100.00;98974.75;4932454;29;20063;-81
2021/05/17 14:47:12;;;;;;;5.07;0.25;;;;;;;13.43;100.00;98964.84;4930407;29;20067;-81
2021/05/17 14:50:16;;;;;;;0.32;0.30;;;;;;;13.18;100.00;98975.16;4930639;29;20071;-82
2021/05/17 14:53:20;;;;;;;0.32;0.30;;;;;;;13.30;100.00;98984.25;4917897;29;20078;-83
2021/05/17 14:56:24;;;;;;;3.30;0.20;;;;;;;13.38;100.00;98974.78;4930187;29;20074;-82
2021/05/17 14:59:28;;;;;;;5.18;0.20;;;;;;;13.41;100.00;98979.38;4930811;29;20063;-81
2021/05/17 15:02:32;;;;;;;0.20;0.10;;;;;;;13.50;100.00;98981.88;4933041;29;20071;-83
2021/05/17 15:05:35;;;;;;;0.68;0.05;;;;;;;13.89;100.00;98987.22;4921328;29;20723;-81